createdAt,value
2019-02-28T00:00:37.201Z,98634.84
2019-02-28T00:03:43.117Z,98631.41
2019-02-28T00:06:47.917Z,98628.55
2019-02-28T00:09:52.649Z,98634.72
2019-02-28T00:12:57.074Z,98637.03
2019-02-28T00:16:03.375Z,98633.52
2019-02-28T00:19:07.664Z,98630.67
2019-02-28T00:22:14.640Z,98637.20
2019-02-28T00:25:18.549Z,98630.20
2019-02-28T00:28:25.548Z,98624.48
2019-02-28T00:31:29.546Z,98620.30
2019-02-28T00:34:36.296Z,98619.94
2019-02-28T00:37:40.156Z,98617.89
2019-02-28T00:40:44.598Z,98611.94
2019-02-28T00:43:49.288Z,98614.16
2019-02-28T00:46:53.731Z,98611.13
2019-02-28T00:49:58.156Z,98608.56
2019-02-28T00:53:02.602Z,98598.36
2019-02-28T00:56:07.398Z,98592.90
2019-02-28T00:59:12.125Z,98589.30
2019-02-28T01:02:17.685Z,98586.49
2019-02-28T01:05:22.723Z,98583.59
2019-02-28T01:08:27.459Z,98582.63
2019-02-28T01:11:32.062Z,98572.58
2019-02-28T01:14:36.674Z,98568.41
2019-02-28T01:17:41.535Z,98564.84
2019-02-28T01:20:49.953Z,98551.50
2019-02-28T01:23:52.433Z,98554.82
2019-02-28T01:26:56.869Z,98541.11
2019-02-28T01:30:01.296Z,98542.78
2019-02-28T01:33:05.740Z,98531.42
2019-02-28T01:36:12.178Z,98531.07
2019-02-28T01:39:16.906Z,98529.08
2019-02-28T01:42:21.795Z,98525.80
2019-02-28T01:45:26.567Z,98518.11
2019-02-28T01:48:31.009Z,98517.09
2019-02-28T01:51:36.699Z,98514.69
2019-02-28T01:54:41.240Z,98512.75
2019-02-28T01:57:45.692Z,98502.59
2019-02-28T02:00:50.425Z,98508.33
2019-02-28T02:03:55.158Z,98504.63
2019-02-28T02:07:00.404Z,98501.84
2019-02-28T02:10:10.765Z,98499.09
2019-02-28T02:13:15.215Z,98496.69
2019-02-28T02:16:19.653Z,98495.30
2019-02-28T02:19:24.087Z,98491.23
2019-02-28T02:22:28.522Z,98494.17
2019-02-28T02:25:37.268Z,98487.41
2019-02-28T02:28:39.130Z,98493.15
2019-02-28T02:31:43.887Z,98490.06
2019-02-28T02:34:48.615Z,98485.52
2019-02-28T02:37:53.335Z,98487.09
2019-02-28T02:41:00.567Z,98479.56
2019-02-28T02:44:04.545Z,98476.99
2019-02-28T02:47:08.970Z,98473.83
2019-02-28T02:50:16.891Z,98467.56
2019-02-28T02:53:21.331Z,98466.89
2019-02-28T02:56:26.019Z,98469.94
2019-02-28T02:59:37.238Z,98460.87
2019-02-28T03:02:36.629Z,98461.30
2019-02-28T03:05:41.342Z,98455.22
2019-02-28T03:08:45.794Z,98454.84
2019-02-28T03:11:50.493Z,98454.11
2019-02-28T03:14:55.063Z,98443.78
2019-02-28T03:17:59.755Z,98446.22
2019-02-28T03:21:04.500Z,98445.78
2019-02-28T03:24:14.563Z,98449.76
2019-02-28T03:27:19.204Z,98446.14
2019-02-28T03:30:28.936Z,98439.76
2019-02-28T03:33:29.214Z,98445.19
2019-02-28T03:36:34.076Z,98439.89
2019-02-28T03:39:38.524Z,98431.86
2019-02-28T03:42:42.966Z,98432.88
2019-02-28T03:45:47.413Z,98434.80
2019-02-28T03:48:51.861Z,98426.06
2019-02-28T03:51:56.294Z,98424.28
2019-02-28T03:55:03.363Z,98424.85
2019-02-28T03:58:07.252Z,98414.12
2019-02-28T04:01:12.023Z,98413.66
2019-02-28T04:04:16.751Z,98413.38
2019-02-28T04:07:21.479Z,98412.71
2019-02-28T04:10:25.931Z,98422.45
2019-02-28T04:13:30.374Z,98420.45
2019-02-28T04:16:34.808Z,98421.64
2019-02-28T04:19:39.587Z,98422.66
2019-02-28T04:22:44.016Z,98420.89
2019-02-28T04:25:48.463Z,98424.06
2019-02-28T04:28:54.699Z,98426.28
2019-02-28T04:31:59.073Z,98422.66
2019-02-28T04:35:03.986Z,98425.91
2019-02-28T04:38:08.643Z,98426.33
2019-02-28T04:41:13.422Z,98425.82
2019-02-28T04:44:18.232Z,98424.36
2019-02-28T04:47:23.460Z,98424.88
2019-02-28T04:50:31.264Z,98415.06
2019-02-28T04:53:34.037Z,98423.06
2019-02-28T04:56:38.712Z,98428.81
2019-02-28T04:59:43.400Z,98424.70
2019-02-28T05:02:47.833Z,98421.34
2019-02-28T05:05:52.275Z,98427.34
2019-02-28T05:08:56.703Z,98424.20
2019-02-28T05:12:02.462Z,98424.84
2019-02-28T05:15:10.836Z,98425.43
2019-02-28T05:18:15.270Z,98424.61
2019-02-28T05:21:20.283Z,98430.45
2019-02-28T05:24:24.714Z,98425.88
2019-02-28T05:27:34.942Z,98424.11
2019-02-28T05:30:35.327Z,98429.27
2019-02-28T05:33:41.889Z,98433.78
2019-02-28T05:36:46.258Z,98434.70
2019-02-28T05:39:50.685Z,98437.30
2019-02-28T05:42:58.501Z,98440.09
2019-02-28T05:46:01.590Z,98434.75
2019-02-28T05:49:08.650Z,98429.63
2019-02-28T05:52:12.770Z,98435.02
2019-02-28T05:55:17.507Z,98431.77
2019-02-28T05:58:21.952Z,98435.02
2019-02-28T06:01:26.656Z,98436.48
2019-02-28T06:04:31.091Z,98448.86
2019-02-28T06:07:35.826Z,98446.39
2019-02-28T06:10:40.274Z,98450.14
2019-02-28T06:13:44.709Z,98449.18
2019-02-28T06:16:49.150Z,98451.69
2019-02-28T06:19:53.611Z,98454.89
2019-02-28T06:22:58.166Z,98460.13
2019-02-28T06:26:02.865Z,98465.08
2019-02-28T06:29:07.630Z,98459.14
2019-02-28T06:32:13.607Z,98463.98
2019-02-28T06:35:20.357Z,98466.09
2019-02-28T06:38:24.864Z,98471.38
2019-02-28T06:41:29.301Z,98471.42
2019-02-28T06:44:33.737Z,98466.73
2019-02-28T06:47:39.097Z,98475.22
2019-02-28T06:50:44.730Z,98483.22
2019-02-28T06:53:49.986Z,98480.11
2019-02-28T06:56:55.326Z,98485.09
2019-02-28T06:59:59.914Z,98474.75
2019-02-28T07:03:04.483Z,98480.41
2019-02-28T07:06:08.886Z,98471.66
2019-02-28T07:09:13.606Z,98476.13
2019-02-28T07:12:18.063Z,98471.28
2019-02-28T07:15:24.813Z,98472.83
2019-02-28T07:18:28.742Z,98473.48
2019-02-28T07:21:34.554Z,98478.66
2019-02-28T07:24:39.109Z,98481.63
2019-02-28T07:27:43.630Z,98477.09
2019-02-28T07:30:50.298Z,98484.93
2019-02-28T07:33:54.251Z,98481.25
2019-02-28T07:36:58.700Z,98484.52
2019-02-28T07:40:03.585Z,98491.67
2019-02-28T07:43:12.030Z,98487.31
2019-02-28T07:46:14.191Z,98484.22
2019-02-28T07:49:18.630Z,98489.47
2019-02-28T07:52:23.071Z,98482.45
2019-02-28T07:55:30.507Z,98490.35
2019-02-28T07:58:34.123Z,98484.89
2019-02-28T08:01:38.555Z,98476.53
2019-02-28T08:04:43.717Z,98483.19
2019-02-28T08:07:52.069Z,98478.81
2019-02-28T08:10:54.873Z,98487.00
2019-02-28T08:13:59.606Z,98490.91
2019-02-28T08:17:05.505Z,98481.48
2019-02-28T08:20:10.602Z,98477.86
2019-02-28T08:23:15.336Z,98468.06
2019-02-28T08:26:19.799Z,98463.64
2019-02-28T08:29:24.485Z,98470.69
2019-02-28T08:32:28.918Z,98468.89
2019-02-28T08:35:34.800Z,98476.52
2019-02-28T08:38:39.537Z,98467.45
2019-02-28T08:41:44.041Z,98464.00
2019-02-28T08:44:48.485Z,98465.36
2019-02-28T08:47:56.782Z,98453.31
2019-02-28T08:50:59.797Z,98450.88
2019-02-28T08:54:06.035Z,98458.11
2019-02-28T08:57:10.562Z,98458.33
2019-02-28T09:00:21.219Z,98453.48
2019-02-28T09:03:27.233Z,98454.48
2019-02-28T09:06:32.126Z,98455.17
2019-02-28T09:09:36.950Z,98452.35
2019-02-28T09:12:41.781Z,98454.41
2019-02-28T09:15:46.621Z,98449.67
2019-02-28T09:18:51.073Z,98451.69
2019-02-28T09:21:55.517Z,98445.95
2019-02-28T09:25:00.297Z,98444.03
2019-02-28T09:28:04.813Z,98438.23
2019-02-28T09:31:09.658Z,98443.54
2019-02-28T09:34:14.116Z,98443.63
2019-02-28T09:37:18.807Z,98441.36
2019-02-28T09:40:25.641Z,98437.97
2019-02-28T09:43:29.436Z,98429.35
2019-02-28T09:46:34.236Z,98426.86
2019-02-28T09:49:38.677Z,98420.16
2019-02-28T09:52:43.197Z,98420.13
2019-02-28T09:55:47.637Z,98422.11
2019-02-28T09:58:52.460Z,98414.33
2019-02-28T10:02:01.301Z,98413.81
2019-02-28T10:05:06.595Z,98414.28
2019-02-28T10:08:09.696Z,98412.19
2019-02-28T10:11:14.170Z,98407.03
2019-02-28T10:14:18.646Z,98409.94
2019-02-28T10:17:25.861Z,98410.47
2019-02-28T10:20:39.310Z,98404.58
2019-02-28T10:23:43.742Z,98407.75
2019-02-28T10:26:51.520Z,98400.52
2019-02-28T10:29:54.690Z,98395.82
2019-02-28T10:32:59.135Z,98400.81
2019-02-28T10:36:03.584Z,98400.34
2019-02-28T10:39:08.873Z,98398.13
2019-02-28T10:42:14.209Z,98399.16
2019-02-28T10:45:19.068Z,98404.53
2019-02-28T10:48:23.579Z,98394.41
2019-02-28T10:51:28.331Z,98387.27
2019-02-28T10:54:32.781Z,98377.52
2019-02-28T10:57:40.690Z,98368.08
2019-02-28T11:00:45.630Z,98377.03
2019-02-28T11:03:50.415Z,98378.00
2019-02-28T11:06:54.870Z,98376.95
2019-02-28T11:10:01.823Z,98375.81
2019-02-28T11:13:12.821Z,98380.12
2019-02-28T11:16:20.529Z,98368.46
2019-02-28T11:19:23.695Z,98369.72
2019-02-28T11:22:28.216Z,98364.23
2019-02-28T11:25:35.532Z,98359.89
2019-02-28T11:28:39.218Z,98351.81
2019-02-28T11:31:43.670Z,98340.78
2019-02-28T11:34:48.665Z,98336.83
2019-02-28T11:37:53.883Z,98342.30
2019-02-28T11:40:58.478Z,98337.95
2019-02-28T11:44:03.177Z,98339.23
2019-02-28T11:47:08.430Z,98344.82
2019-02-28T11:50:13.879Z,98334.80
2019-02-28T11:53:19.236Z,98333.97
2019-02-28T11:56:25.580Z,98345.09
2019-02-28T11:59:30.067Z,98333.29
2019-02-28T12:02:34.528Z,98329.78
2019-02-28T12:05:39.264Z,98334.78
2019-02-28T12:08:45.112Z,98322.44
2019-02-28T12:11:50.121Z,98321.10
2019-02-28T12:14:54.576Z,98314.38
2019-02-28T12:18:03.629Z,98317.61
2019-02-28T12:21:05.494Z,98315.87
2019-02-28T12:24:09.926Z,98314.14
2019-02-28T12:27:14.379Z,98310.52
2019-02-28T12:30:25.098Z,98311.91
2019-02-28T12:33:28.871Z,98307.28
2019-02-28T12:36:33.566Z,98304.78
2019-02-28T12:39:38.368Z,98303.69
2019-02-28T12:42:42.819Z,98296.41
2019-02-28T12:45:47.905Z,98299.80
2019-02-28T12:48:52.356Z,98289.38
2019-02-28T12:51:57.081Z,98290.14
2019-02-28T12:55:04.016Z,98285.45
2019-02-28T12:58:07.989Z,98288.57
2019-02-28T13:01:12.432Z,98276.52
2019-02-28T13:04:17.140Z,98282.29
2019-02-28T13:07:21.863Z,98278.09
2019-02-28T13:10:27.923Z,98271.72
2019-02-28T13:13:33.171Z,98268.76
2019-02-28T13:16:37.616Z,98252.91
2019-02-28T13:19:42.074Z,98266.58
2019-02-28T13:22:46.860Z,98251.99
2019-02-28T13:25:51.788Z,98255.49
2019-02-28T13:28:57.446Z,98246.11
2019-02-28T13:32:02.811Z,98246.10
2019-02-28T13:35:14.082Z,98239.63
2019-02-28T13:38:19.725Z,98238.55
2019-02-28T13:41:26.764Z,98226.59
2019-02-28T13:44:31.589Z,98229.97
2019-02-28T13:47:37.202Z,98247.98
2019-02-28T13:50:41.650Z,98237.27
2019-02-28T13:53:46.178Z,98230.64
2019-02-28T13:56:50.873Z,98240.33
2019-02-28T13:59:55.605Z,98231.99
2019-02-28T14:03:09.479Z,98222.34
2019-02-28T14:06:18.740Z,98230.14
2019-02-28T14:09:22.189Z,98230.56
2019-02-28T14:12:26.140Z,98218.78
2019-02-28T14:15:52.375Z,98216.23
2019-02-28T14:18:56.852Z,98213.92
2019-02-28T14:22:01.294Z,98212.58
2019-02-28T14:25:09.183Z,98208.72
2019-02-28T14:28:13.923Z,98206.59
2019-02-28T14:31:18.367Z,98209.67
2019-02-28T14:34:26.156Z,98204.97
2019-02-28T14:37:29.021Z,98191.55
2019-02-28T14:40:33.477Z,98182.69
2019-02-28T14:43:37.932Z,98190.24
2019-02-28T14:46:42.521Z,98175.24
2019-02-28T14:49:46.986Z,98174.29
2019-02-28T14:52:55.435Z,98177.64
2019-02-28T14:55:59.928Z,98180.55
2019-02-28T14:59:04.375Z,98172.34
2019-02-28T15:02:08.834Z,98160.91
2019-02-28T15:05:16.689Z,98170.10
2019-02-28T15:08:22.191Z,98167.80
2019-02-28T15:11:27.004Z,98170.17
2019-02-28T15:14:31.465Z,98168.08
2019-02-28T15:17:38.670Z,98161.15
2019-02-28T15:20:42.427Z,98161.00
2019-02-28T15:23:46.880Z,98154.72
2019-02-28T15:26:51.325Z,98163.06
2019-02-28T15:29:58.866Z,98164.76
2019-02-28T15:33:02.595Z,98163.49
2019-02-28T15:36:07.332Z,98160.30
2019-02-28T15:39:12.037Z,98167.64
2019-02-28T15:42:16.549Z,98185.29
2019-02-28T15:45:21.010Z,98174.22
2019-02-28T15:48:25.469Z,98177.83
2019-02-28T15:51:30.333Z,98186.18
2019-02-28T15:54:34.775Z,98195.70
2019-02-28T15:57:39.812Z,98195.93
2019-02-28T16:00:44.544Z,98204.86
2019-02-28T16:03:51.286Z,98209.27
2019-02-28T16:06:57.955Z,98225.67
2019-02-28T16:10:02.007Z,98230.66
2019-02-28T16:13:08.174Z,98233.82
2019-02-28T16:16:12.626Z,98241.30
2019-02-28T16:19:18.872Z,98247.73
2019-02-28T16:22:23.244Z,98235.63
2019-02-28T16:25:34.232Z,98233.88
2019-02-28T16:28:39.535Z,98235.83
2019-02-28T16:31:44.923Z,98237.75
2019-02-28T16:34:49.435Z,98234.97
2019-02-28T16:37:53.885Z,98242.73
2019-02-28T16:41:00.825Z,98236.62
2019-02-28T16:44:04.801Z,98240.92
2019-02-28T16:47:09.567Z,98245.47
2019-02-28T16:50:15.379Z,98251.06
2019-02-28T16:53:20.835Z,98256.28
2019-02-28T16:56:25.667Z,98257.22
2019-02-28T16:59:31.544Z,98256.35
2019-02-28T17:02:36.869Z,98265.52
2019-02-28T17:05:41.321Z,98273.03
2019-02-28T17:08:47.668Z,98283.99
2019-02-28T17:11:54.029Z,98287.47
2019-02-28T17:14:58.498Z,98297.08
2019-02-28T17:18:04.934Z,98301.09
2019-02-28T17:21:09.390Z,98301.92
2019-02-28T17:24:13.845Z,98301.93
2019-02-28T17:27:20.247Z,98314.28
2019-02-28T17:30:29.671Z,98304.66
2019-02-28T17:33:34.732Z,98309.42
2019-02-28T17:36:39.192Z,98316.95
2019-02-28T17:39:44.026Z,98311.53
2019-02-28T17:42:49.671Z,98309.28
2019-02-28T17:45:55.080Z,98317.80
2019-02-28T17:49:26.389Z,98328.42
2019-02-28T17:52:59.754Z,98315.24
2019-02-28T17:56:30.990Z,98327.59
2019-02-28T17:59:59.442Z,98330.08
2019-02-28T18:03:26.118Z,98334.17
2019-02-28T18:06:52.239Z,98344.34
2019-02-28T18:10:13.266Z,98351.99
2019-02-28T18:13:43.084Z,98361.55
2019-02-28T18:17:21.294Z,98356.44
2019-02-28T18:21:00.716Z,98361.42
2019-02-28T18:24:27.808Z,98366.36
2019-02-28T18:28:03.481Z,98372.67
2019-02-28T18:31:12.994Z,98371.75
2019-02-28T18:34:20.535Z,98384.70
2019-02-28T18:37:24.506Z,98374.22
2019-02-28T18:40:29.143Z,98377.02
2019-02-28T18:43:33.587Z,98380.05
2019-02-28T18:46:38.053Z,98394.02
2019-02-28T18:49:42.503Z,98390.07
2019-02-28T18:52:47.239Z,98388.19
2019-02-28T18:55:51.971Z,98388.41
2019-02-28T18:58:56.704Z,98393.23
2019-02-28T19:02:01.151Z,98407.80
2019-02-28T19:05:07.256Z,98404.64
2019-02-28T19:08:11.803Z,98404.57
2019-02-28T19:11:16.352Z,98414.03
2019-02-28T19:14:20.789Z,98419.44
2019-02-28T19:17:25.496Z,98417.90
2019-02-28T19:20:29.931Z,98411.43
2019-02-28T19:23:34.665Z,98415.80
2019-02-28T19:26:39.379Z,98408.31
2019-02-28T19:29:43.811Z,98417.38
2019-02-28T19:32:48.271Z,98413.41
2019-02-28T19:35:52.968Z,98414.23
2019-02-28T19:38:57.419Z,98420.17
2019-02-28T19:42:02.240Z,98426.14
2019-02-28T19:45:38.291Z,98414.85
2019-02-28T19:48:42.744Z,98419.64
2019-02-28T19:51:47.204Z,98405.40
2019-02-28T19:54:51.640Z,98409.13
2019-02-28T19:57:56.388Z,98409.38
2019-02-28T20:01:00.829Z,98405.62
2019-02-28T20:04:05.639Z,98389.78
2019-02-28T20:07:10.476Z,98389.06
2019-02-28T20:10:18.062Z,98391.38
2019-02-28T20:13:22.797Z,98395.70
2019-02-28T20:16:27.535Z,98400.05
2019-02-28T20:19:31.973Z,98398.72
2019-02-28T20:22:36.493Z,98392.01
2019-02-28T20:25:40.929Z,98395.51
2019-02-28T20:28:45.865Z,98386.13
2019-02-28T20:31:50.571Z,98390.70
2019-02-28T20:34:55.304Z,98386.42
2019-02-28T20:38:00.034Z,98378.07
2019-02-28T20:41:04.867Z,98380.43
2019-02-28T20:44:09.327Z,98376.16
2019-02-28T20:47:14.022Z,98374.75
2019-02-28T20:50:23.556Z,98377.16
2019-02-28T20:53:27.998Z,98370.37
2019-02-28T20:56:32.439Z,98376.52
2019-02-28T20:59:36.894Z,98380.09
2019-02-28T21:02:41.352Z,98384.64
2019-02-28T21:05:45.867Z,98382.95
2019-02-28T21:08:50.615Z,98383.78
2019-02-28T21:11:55.059Z,98387.27
2019-02-28T21:15:01.322Z,98386.73
2019-02-28T21:18:06.446Z,98385.69
2019-02-28T21:21:11.205Z,98383.24
2019-02-28T21:24:15.628Z,98380.27
2019-02-28T21:27:20.073Z,98376.38
2019-02-28T21:30:27.314Z,98374.23
2019-02-28T21:33:31.766Z,98376.10
2019-02-28T21:36:36.212Z,98368.66
2019-02-28T21:39:40.658Z,98359.97
2019-02-28T21:42:45.096Z,98359.72
2019-02-28T21:45:49.559Z,98355.15
2019-02-28T21:48:54.266Z,98353.81
2019-02-28T21:51:58.995Z,98345.47
2019-02-28T21:55:04.318Z,98343.34
2019-02-28T21:58:09.073Z,98341.35
2019-02-28T22:01:13.512Z,98336.20
2019-02-28T22:04:17.957Z,98337.15
2019-02-28T22:07:22.754Z,98327.52
2019-02-28T22:10:27.211Z,98327.72
2019-02-28T22:13:32.007Z,98324.76
2019-02-28T22:16:36.739Z,98320.20
2019-02-28T22:19:41.187Z,98324.45
2019-02-28T22:22:46.000Z,98323.78
2019-02-28T22:25:50.729Z,98325.02
2019-02-28T22:28:55.177Z,98314.22
2019-02-28T22:32:07.577Z,98313.79
2019-02-28T22:35:14.037Z,98310.52
2019-02-28T22:38:18.483Z,98309.11
2019-02-28T22:41:23.188Z,98313.97
2019-02-28T22:44:27.635Z,98307.78
2019-02-28T22:47:32.073Z,98307.84
2019-02-28T22:50:36.519Z,98300.00
2019-02-28T22:53:41.294Z,98302.47
2019-02-28T22:56:46.572Z,98312.70
2019-02-28T22:59:51.019Z,98300.76
2019-02-28T23:02:55.461Z,98299.91
2019-02-28T23:05:59.977Z,98290.77
2019-02-28T23:09:05.270Z,98288.14
2019-02-28T23:12:09.981Z,98286.50
2019-02-28T23:15:14.730Z,98287.81
2019-02-28T23:18:19.177Z,98283.17
2019-02-28T23:21:23.618Z,98286.23
2019-02-28T23:24:28.090Z,98278.84
2019-02-28T23:27:32.812Z,98274.58
2019-02-28T23:30:57.108Z,98274.30
2019-02-28T23:34:14.486Z,98268.11
2019-02-28T23:37:19.267Z,98261.42
2019-02-28T23:40:23.703Z,98251.77
2019-02-28T23:43:28.425Z,98259.83
2019-02-28T23:46:33.156Z,98262.28
2019-02-28T23:49:37.590Z,98256.09
2019-02-28T23:52:42.040Z,98257.96
2019-02-28T23:55:46.530Z,98259.89
2019-02-28T23:58:51.262Z,98260.78
